Time;durP1;ratioP1;P1;durP2;ratioP2;P2;SDS_P1;SDS_P2;PMS_P1;PMS_P2;Temp;Humidity;BMP_temperature;BMP_pressure;BME280_temperature;BME280_humidity;BME280_pressure;Samples;Min_cycle;Max_cycle;Signal;HPM_P1;HPM_P2
2022/12/06 00:00:23;;;;;;;;;;;;;;;;;;1896246;28;7097;-60
2022/12/06 00:01:27;;;;;;;;;;;;;;;;;;1897739;28;7213;-61
2022/12/06 00:02:24;;;;;;;;;;;;;;;;;;1902025;28;7092;-61
2022/12/06 00:03:22;;;;;;;;;;;;;;;;;;1899721;28;7021;-61
2022/12/06 00:04:19;;;;;;;;;;;;;;;;;;1897414;28;7120;-61
2022/12/06 00:05:17;;;;;;;;;;;;;;;;;;1899967;28;7131;-61
2022/12/06 00:06:16;;;;;;;;;;;;;;;;;;1899739;28;8099;-61
2022/12/06 00:07:13;;;;;;;;;;;;;;;;;;1901589;28;7109;-62
2022/12/06 00:08:11;;;;;;;;;;;;;;;;;;1905068;28;7030;-62
2022/12/06 00:09:15;;;;;;;;;;;;;;;;;;1900561;28;7009;-61
2022/12/06 00:10:12;;;;;;;;;;;;;;;;;;1899337;28;7068;-61
2022/12/06 00:11:11;;;;;;;;;;;;;;;;;;1898349;28;7148;-61
2022/12/06 00:12:08;;;;;;;;;;;;;;;;;;1897564;28;7038;-61
2022/12/06 00:13:06;;;;;;;;;;;;;;;;;;1901383;28;7009;-62
2022/12/06 00:14:05;;;;;;;;;;;;;;;;;;1900164;28;7113;-61
2022/12/06 00:15:03;;;;;;;;;;;;;;;;;;1897639;28;7025;-61
2022/12/06 00:16:04;;;;;;;;;;;;;;;;;;1900126;28;7116;-61
2022/12/06 00:17:02;;;;;;;;;;;;;;;;;;1902698;28;7034;-61
2022/12/06 00:17:59;;;;;;;;;;;;;;;;;;1904705;28;7006;-61
2022/12/06 00:18:57;;;;;;;;;;;;;;;;;;1898281;28;7109;-60
2022/12/06 00:19:54;;;;;;;;;;;;;;;;;;1897615;28;8043;-61
2022/12/06 00:20:52;;;;;;;;;;;;;;;;;;1903844;28;8005;-61
2022/12/06 00:21:50;;;;;;;;;;;;;;;;;;1896960;28;7121;-60
2022/12/06 00:22:47;;;;;;;;;;;;;;;;;;1900026;28;7312;-61
2022/12/06 00:23:46;;;;;;;;;;;;;;;;;;1896124;28;8056;-61
2022/12/06 00:24:43;;;;;;;;;;;;;;;;;;1904246;28;7001;-62
2022/12/06 00:25:40;;;;;;;;;;;;;;;;;;1898486;28;7005;-61
2022/12/06 00:26:39;;;;;;;;;;;;;;;;;;1896645;28;7040;-61
2022/12/06 00:27:37;;;;;;;;;;;;;;;;;;1900187;28;7192;-61
2022/12/06 00:28:35;;;;;;;;;;;;;;;;;;1898708;28;7423;-62
2022/12/06 00:29:33;;;;;;;;;;;;;;;;;;1897418;28;7026;-62
2022/12/06 00:30:30;;;;;;;;;;;;;;;;;;1898561;28;7054;-62
2022/12/06 00:31:30;;;;;;;;;;;;;;;;;;1898825;28;7380;-62
2022/12/06 00:32:27;;;;;;;;;;;;;;;;;;1900670;28;7055;-62
2022/12/06 00:33:25;;;;;;;;;;;;;;;;;;1904208;28;7390;-61
2022/12/06 00:34:22;;;;;;;;;;;;;;;;;;1895250;28;8038;-61
2022/12/06 00:35:20;;;;;;;;;;;;;;;;;;1896514;28;7026;-60
2022/12/06 00:36:19;;;;;;;;;;;;;;;;;;1897681;28;7050;-61
2022/12/06 00:37:16;;;;;;;;;;;;;;;;;;1898985;28;7120;-61
2022/12/06 00:38:13;;;;;;;;;;;;;;;;;;1900545;28;7094;-61
2022/12/06 00:39:12;;;;;;;;;;;;;;;;;;1904900;28;7058;-61
2022/12/06 00:40:10;;;;;;;;;;;;;;;;;;1899155;28;7038;-61
2022/12/06 00:41:09;;;;;;;;;;;;;;;;;;1898627;28;7005;-61
2022/12/06 00:42:06;;;;;;;;;;;;;;;;;;1900234;28;7232;-62
2022/12/06 00:43:03;;;;;;;;;;;;;;;;;;1896477;28;7042;-61
2022/12/06 00:44:01;;;;;;;;;;;;;;;;;;1902572;28;7092;-60
2022/12/06 00:44:58;;;;;;;;;;;;;;;;;;1897018;28;8151;-61
2022/12/06 00:45:56;;;;;;;;;;;;;;;;;;1902832;28;7540;-61
2022/12/06 00:46:53;;;;;;;;;;;;;;;;;;1901928;28;8055;-62
2022/12/06 00:47:50;;;;;;;;;;;;;;;;;;1900338;28;7006;-61
2022/12/06 00:48:49;;;;;;;;;;;;;;;;;;1903346;28;7152;-60
2022/12/06 00:49:46;;;;;;;;;;;;;;;;;;1899524;28;7092;-62
2022/12/06 00:50:43;;;;;;;;;;;;;;;;;;1899586;28;8067;-61
2022/12/06 00:51:41;;;;;;;;;;;;;;;;;;1901059;28;7013;-62
2022/12/06 00:52:38;;;;;;;;;;;;;;;;;;1901539;28;7376;-61
2022/12/06 00:53:36;;;;;;;;;;;;;;;;;;1901877;28;7006;-61
2022/12/06 00:54:33;;;;;;;;;;;;;;;;;;1902877;28;8029;-62
2022/12/06 00:55:30;;;;;;;;;;;;;;;;;;1904539;28;7038;-61
2022/12/06 00:56:28;;;;;;;;;;;;;;;;;;1901704;28;7029;-60
2022/12/06 00:57:25;;;;;;;;;;;;;;;;;;1900370;28;7088;-60
2022/12/06 00:58:23;;;;;;;;;;;;;;;;;;1900407;28;7130;-61
2022/12/06 00:59:20;;;;;;;;;;;;;;;;;;1903755;28;7991;-61
2022/12/06 01:00:18;;;;;;;;;;;;;;;;;;1903114;28;7005;-62
2022/12/06 01:01:18;;;;;;;;;;;;;;;;;;1901970;28;7006;-61
2022/12/06 01:02:15;;;;;;;;;;;;;;;;;;1902907;28;7149;-61
2022/12/06 01:03:13;;;;;;;;;;;;;;;;;;1896844;28;9058;-61
2022/12/06 01:04:10;;;;;;;;;;;;;;;;;;1901048;28;7009;-62
2022/12/06 01:05:08;;;;;;;;;;;;;;;;;;1897075;28;7105;-61
2022/12/06 01:06:07;;;;;;;;;;;;;;;;;;1904325;28;8030;-61
2022/12/06 01:07:04;;;;;;;;;;;;;;;;;;1898359;28;8031;-62
2022/12/06 01:08:01;;;;;;;;;;;;;;;;;;1902957;28;8132;-61
2022/12/06 01:09:02;;;;;;;;;;;;;;;;;;1902850;28;7126;-62
2022/12/06 01:09:59;;;;;;;;;;;;;;;;;;1896895;28;7009;-61
2022/12/06 01:10:57;;;;;;;;;;;;;;;;;;1897065;28;7010;-61
2022/12/06 01:11:55;;;;;;;;;;;;;;;;;;1896929;28;7009;-62
2022/12/06 01:12:52;;;;;;;;;;;;;;;;;;1897339;28;7391;-60
2022/12/06 01:13:50;;;;;;;;;;;;;;;;;;1904229;28;7005;-61
2022/12/06 01:14:47;;;;;;;;;;;;;;;;;;1899579;28;7005;-62
2022/12/06 01:15:45;;;;;;;;;;;;;;;;;;1898127;28;7105;-62
2022/12/06 01:16:42;;;;;;;;;;;;;;;;;;1898485;28;7292;-61
2022/12/06 01:17:39;;;;;;;;;;;;;;;;;;1896401;28;7042;-62
2022/12/06 01:18:37;;;;;;;;;;;;;;;;;;1902487;28;7017;-60
2022/12/06 01:19:34;;;;;;;;;;;;;;;;;;1899444;28;7351;-62
2022/12/06 01:20:33;;;;;;;;;;;;;;;;;;1899142;28;7149;-62
2022/12/06 01:21:30;;;;;;;;;;;;;;;;;;1900111;28;7363;-62
2022/12/06 01:22:28;;;;;;;;;;;;;;;;;;1897114;28;7005;-62
2022/12/06 01:23:25;;;;;;;;;;;;;;;;;;1904450;28;7127;-62
2022/12/06 01:24:22;;;;;;;;;;;;;;;;;;1900935;28;7046;-62
2022/12/06 01:25:20;;;;;;;;;;;;;;;;;;1904062;28;7005;-61
2022/12/06 01:26:24;;;;;;;;;;;;;;;;;;1898420;28;7275;-62
2022/12/06 01:27:21;;;;;;;;;;;;;;;;;;1903706;28;7087;-62
2022/12/06 01:28:19;;;;;;;;;;;;;;;;;;1901851;28;7096;-61
2022/12/06 01:29:17;;;;;;;;;;;;;;;;;;1902342;28;7380;-61
2022/12/06 01:30:15;;;;;;;;;;;;;;;;;;1899652;28;7009;-62
2022/12/06 01:31:13;;;;;;;;;;;;;;;;;;1900177;28;7029;-62
2022/12/06 01:32:11;;;;;;;;;;;;;;;;;;1905543;28;7079;-61
2022/12/06 01:33:08;;;;;;;;;;;;;;;;;;1898420;28;7006;-61
2022/12/06 01:34:12;;;;;;;;;;;;;;;;;;1901634;28;7151;-62
2022/12/06 01:35:09;;;;;;;;;;;;;;;;;;1905530;28;7014;-61
2022/12/06 01:36:06;;;;;;;;;;;;;;;;;;1906148;28;7096;-60
2022/12/06 01:37:04;;;;;;;;;;;;;;;;;;1902822;28;7077;-61
2022/12/06 01:38:02;;;;;;;;;;;;;;;;;;1901340;28;7026;-62
2022/12/06 01:39:05;;;;;;;;;;;;;;;;;;1897402;28;7009;-61
2022/12/06 01:40:03;;;;;;;;;;;;;;;;;;1899923;28;7092;-61
2022/12/06 01:41:01;;;;;;;;;;;;;;;;;;1898572;28;8135;-62
2022/12/06 01:41:58;;;;;;;;;;;;;;;;;;1899525;28;7009;-61
2022/12/06 01:42:56;;;;;;;;;;;;;;;;;;1905085;28;7010;-62
2022/12/06 01:43:54;;;;;;;;;;;;;;;;;;1905976;28;7054;-62
2022/12/06 01:44:53;;;;;;;;;;;;;;;;;;1900552;28;7231;-61
2022/12/06 01:45:51;;;;;;;;;;;;;;;;;;1899680;28;9357;-60
2022/12/06 01:46:48;;;;;;;;;;;;;;;;;;1901124;28;7029;-62
2022/12/06 01:47:46;;;;;;;;;;;;;;;;;;1898774;28;7760;-61
2022/12/06 01:48:44;;;;;;;;;;;;;;;;;;1898451;28;7121;-62
2022/12/06 01:49:44;;;;;;;;;;;;;;;;;;1899999;28;7014;-61
2022/12/06 01:50:42;;;;;;;;;;;;;;;;;;1902599;28;7013;-61
2022/12/06 01:51:43;;;;;;;;;;;;;;;;;;1902760;28;9002;-62
2022/12/06 01:53:02;;;;;;;;;;;;;;;;;;1900830;28;7009;-61
2022/12/06 01:54:03;;;;;;;;;;;;;;;;;;1900799;28;7098;-61
2022/12/06 01:55:01;;;;;;;;;;;;;;;;;;1898319;28;7979;-61
2022/12/06 01:56:00;;;;;;;;;;;;;;;;;;1899481;28;7026;-62
2022/12/06 01:56:59;;;;;;;;;;;;;;;;;;1901805;28;8043;-62
2022/12/06 01:58:00;;;;;;;;;;;;;;;;;;1902597;28;8061;-61
2022/12/06 01:58:58;;;;;;;;;;;;;;;;;;1904009;28;8035;-61
2022/12/06 01:59:56;;;;;;;;;;;;;;;;;;1900352;28;7120;-61
2022/12/06 02:00:54;;;;;;;;;;;;;;;;;;1900253;28;7009;-62
2022/12/06 02:01:52;;;;;;;;;;;;;;;;;;1904162;28;8044;-62
2022/12/06 02:02:49;;;;;;;;;;;;;;;;;;1898217;28;7034;-62
2022/12/06 02:03:47;;;;;;;;;;;;;;;;;;1900302;28;7092;-62
2022/12/06 02:04:45;;;;;;;;;;;;;;;;;;1898039;28;7006;-62
2022/12/06 02:05:43;;;;;;;;;;;;;;;;;;1904094;28;7009;-61
2022/12/06 02:06:42;;;;;;;;;;;;;;;;;;1905929;28;7026;-61
2022/12/06 02:07:39;;;;;;;;;;;;;;;;;;1898485;28;8083;-61
2022/12/06 02:08:37;;;;;;;;;;;;;;;;;;1903685;28;7328;-61
2022/12/06 02:09:35;;;;;;;;;;;;;;;;;;1899359;28;7005;-61
2022/12/06 02:10:33;;;;;;;;;;;;;;;;;;1899366;28;7017;-61
2022/12/06 02:11:31;;;;;;;;;;;;;;;;;;1897931;28;7054;-61
2022/12/06 02:12:31;;;;;;;;;;;;;;;;;;1904962;28;7148;-61
2022/12/06 02:13:31;;;;;;;;;;;;;;;;;;1899244;28;7009;-61
2022/12/06 02:14:32;;;;;;;;;;;;;;;;;;1898162;28;7092;-61
2022/12/06 02:15:43;;;;;;;;;;;;;;;;;;1899971;28;7140;-62
2022/12/06 02:16:52;;;;;;;;;;;;;;;;;;1902629;28;7030;-62
2022/12/06 02:17:58;;;;;;;;;;;;;;;;;;1899885;28;7092;-61
2022/12/06 02:19:11;;;;;;;;;;;;;;;;;;1903402;28;7120;-61
2022/12/06 02:20:17;;;;;;;;;;;;;;;;;;1903761;28;7324;-62
2022/12/06 02:21:25;;;;;;;;;;;;;;;;;;1898337;28;8077;-61
2022/12/06 02:22:23;;;;;;;;;;;;;;;;;;1901822;28;7093;-61
2022/12/06 02:23:40;;;;;;;;;;;;;;;;;;1905031;28;7014;-61
2022/12/06 02:24:56;;;;;;;;;;;;;;;;;;1903881;28;7025;-61
2022/12/06 02:25:56;;;;;;;;;;;;;;;;;;1898217;28;8012;-60
2022/12/06 02:27:12;;;;;;;;;;;;;;;;;;1898006;28;7084;-60
2022/12/06 02:28:12;;;;;;;;;;;;;;;;;;1897748;28;7144;-62
2022/12/06 02:29:10;;;;;;;;;;;;;;;;;;1897690;28;7101;-62
2022/12/06 02:30:12;;;;;;;;;;;;;;;;;;1897894;28;7038;-62
2022/12/06 02:31:24;;;;;;;;;;;;;;;;;;1899518;28;7088;-62
2022/12/06 02:32:30;;;;;;;;;;;;;;;;;;1900854;28;7005;-60
2022/12/06 02:33:34;;;;;;;;;;;;;;;;;;1900519;28;7009;-60
2022/12/06 02:34:44;;;;;;;;;;;;;;;;;;1898185;28;7042;-62
2022/12/06 02:36:01;;;;;;;;;;;;;;;;;;1902639;28;7120;-62
2022/12/06 02:37:01;;;;;;;;;;;;;;;;;;1889331;28;7113;-62
2022/12/06 02:38:05;;;;;;;;;;;;;;;;;;1898120;28;7092;-60
2022/12/06 02:39:19;;;;;;;;;;;;;;;;;;1897648;28;7048;-59
2022/12/06 02:40:23;;;;;;;;;;;;;;;;;;1899451;28;7018;-61
2022/12/06 02:41:27;;;;;;;;;;;;;;;;;;1897901;28;7359;-62
2022/12/06 02:42:32;;;;;;;;;;;;;;;;;;1904246;28;7100;-62
2022/12/06 02:43:47;;;;;;;;;;;;;;;;;;1897999;28;7092;-62
2022/12/06 02:44:49;;;;;;;;;;;;;;;;;;1905723;28;7042;-62
2022/12/06 02:45:51;;;;;;;;;;;;;;;;;;1901159;28;7041;-62
2022/12/06 02:46:49;;;;;;;;;;;;;;;;;;1898462;28;7129;-61
2022/12/06 02:47:49;;;;;;;;;;;;;;;;;;1898408;28;7168;-61
2022/12/06 02:48:51;;;;;;;;;;;;;;;;;;1901248;28;8666;-61
2022/12/06 02:49:53;;;;;;;;;;;;;;;;;;1899649;28;8042;-61
2022/12/06 02:50:55;;;;;;;;;;;;;;;;;;1903135;28;8189;-61
2022/12/06 02:51:53;;;;;;;;;;;;;;;;;;1900382;28;7148;-60
2022/12/06 02:52:53;;;;;;;;;;;;;;;;;;1899665;28;7358;-60
2022/12/06 02:53:54;;;;;;;;;;;;;;;;;;1897575;28;7025;-61
2022/12/06 02:54:58;;;;;;;;;;;;;;;;;;1900344;28;7038;-61
2022/12/06 02:55:56;;;;;;;;;;;;;;;;;;1897741;28;7029;-61
2022/12/06 02:56:54;;;;;;;;;;;;;;;;;;1898082;28;7005;-61
2022/12/06 02:57:52;;;;;;;;;;;;;;;;;;1899093;28;7005;-60
2022/12/06 02:58:50;;;;;;;;;;;;;;;;;;1898564;28;7100;-62
2022/12/06 02:59:51;;;;;;;;;;;;;;;;;;1900606;28;7009;-62
2022/12/06 03:00:52;;;;;;;;;;;;;;;;;;1897796;28;7112;-60
2022/12/06 03:01:55;;;;;;;;;;;;;;;;;;1899528;28;7013;-62
2022/12/06 03:02:59;;;;;;;;;;;;;;;;;;1899949;28;7009;-61
2022/12/06 03:04:07;;;;;;;;;;;;;;;;;;1901993;28;7125;-60
2022/12/06 03:05:28;;;;;;;;;;;;;;;;;;1897104;28;8051;-62
2022/12/06 03:06:44;;;;;;;;;;;;;;;;;;1900652;28;7005;-61
2022/12/06 03:07:44;;;;;;;;;;;;;;;;;;1896597;28;7120;-62
2022/12/06 03:08:54;;;;;;;;;;;;;;;;;;1900365;28;7133;-62
2022/12/06 03:09:51;;;;;;;;;;;;;;;;;;1902655;28;7042;-62
2022/12/06 03:11:00;;;;;;;;;;;;;;;;;;1899289;28;10340;-61
2022/12/06 03:12:15;;;;;;;;;;;;;;;;;;1898826;28;7092;-61
2022/12/06 03:13:18;;;;;;;;;;;;;;;;;;1896379;28;7034;-61
2022/12/06 03:14:26;;;;;;;;;;;;;;;;;;1903092;28;7042;-62
2022/12/06 03:15:42;;;;;;;;;;;;;;;;;;1899695;28;7042;-61
2022/12/06 03:17:01;;;;;;;;;;;;;;;;;;1901239;28;7046;-61
2022/12/06 03:18:09;;;;;;;;;;;;;;;;;;1900331;28;7096;-59
2022/12/06 03:19:14;;;;;;;;;;;;;;;;;;1899315;28;7359;-61
2022/12/06 03:20:20;;;;;;;;;;;;;;;;;;1899197;28;7005;-61
2022/12/06 03:21:22;;;;;;;;;;;;;;;;;;1902218;28;7033;-61
2022/12/06 03:22:25;;;;;;;;;;;;;;;;;;1900077;28;7100;-60
2022/12/06 03:23:28;;;;;;;;;;;;;;;;;;1898484;28;7271;-61
2022/12/06 03:24:28;;;;;;;;;;;;;;;;;;1902046;28;7013;-61
2022/12/06 03:25:26;;;;;;;;;;;;;;;;;;1900538;28;7468;-62
2022/12/06 03:26:27;;;;;;;;;;;;;;;;;;1897169;28;7104;-62
2022/12/06 03:27:27;;;;;;;;;;;;;;;;;;1900759;28;7421;-61
2022/12/06 03:28:27;;;;;;;;;;;;;;;;;;1897451;28;8179;-62
2022/12/06 03:29:27;;;;;;;;;;;;;;;;;;1900607;28;7308;-61
2022/12/06 03:30:26;;;;;;;;;;;;;;;;;;1901967;28;7050;-60
2022/12/06 03:31:28;;;;;;;;;;;;;;;;;;1900875;28;7129;-61
2022/12/06 03:32:29;;;;;;;;;;;;;;;;;;1898654;28;8099;-61
2022/12/06 03:33:29;;;;;;;;;;;;;;;;;;1905560;28;7034;-62
2022/12/06 03:34:32;;;;;;;;;;;;;;;;;;1897711;28;7109;-62
2022/12/06 09:53:02;;;;;;;;;;;;;;;;;;1925774;27;6818;-61
2022/12/06 09:54:02;;;;;;;;;;;;;;;;;;1887705;28;7100;-62
2022/12/06 09:55:10;;;;;;;;;;;;;;;;;;1913426;28;7010;-62
2022/12/06 09:56:20;;;;;;;;;;;;;;;;;;1918614;28;7005;-62
2022/12/06 09:57:18;;;;;;;;;;;;;;;;;;1918889;28;7149;-62
2022/12/06 09:58:30;;;;;;;;;;;;;;;;;;1916263;28;8030;-63
2022/12/06 09:59:38;;;;;;;;;;;;;;;;;;1916481;28;7104;-61
2022/12/06 10:00:45;;;;;;;;;;;;;;;;;;1918721;28;7116;-62
2022/12/06 10:01:49;;;;;;;;;;;;;;;;;;1918532;28;7029;-62
2022/12/06 10:02:49;;;;;;;;;;;;;;;;;;1918293;28;7025;-61
2022/12/06 10:04:05;;;;;;;;;;;;;;;;;;1918217;28;7013;-61
2022/12/06 10:05:32;;;;;;;;;;;;;;;;;;1918039;28;8022;-62
2022/12/06 10:06:38;;;;;;;;;;;;;;;;;;1897389;28;7010;-61
2022/12/06 10:07:46;;;;;;;;;;;;;;;;;;1918774;28;7009;-62
2022/12/06 10:08:43;;;;;;;;;;;;;;;;;;1918108;28;7001;-62
2022/12/06 10:10:07;;;;;;;;;;;;;;;;;;1918228;28;7038;-62
2022/12/06 10:11:25;;;;;;;;;;;;;;;;;;1918127;28;7010;-61
2022/12/06 10:12:23;;;;;;;;;;;;;;;;;;1918759;28;7005;-63
2022/12/06 10:13:26;;;;;;;;;;;;;;;;;;1918189;28;7038;-62
2022/12/06 10:14:25;;;;;;;;;;;;;;;;;;1918226;28;7116;-61
2022/12/06 10:15:36;;;;;;;;;;;;;;;;;;1918722;28;7310;-61
2022/12/06 10:16:56;;;;;;;;;;;;;;;;;;1918261;28;7062;-62
2022/12/06 10:18:13;;;;;;;;;;;;;;;;;;1917084;28;7001;-63
2022/12/06 10:19:25;;;;;;;;;;;;;;;;;;1912181;28;8090;-62
2022/12/06 10:20:41;;;;;;;;;;;;;;;;;;1918810;28;7176;-61
2022/12/06 10:21:50;;;;;;;;;;;;;;;;;;1918549;28;7013;-62
2022/12/06 10:22:53;;;;;;;;;;;;;;;;;;1918257;28;7006;-62
2022/12/06 10:23:51;;;;;;;;;;;;;;;;;;1918155;28;7029;-62
2022/12/06 10:25:00;;;;;;;;;;;;;;;;;;1918836;28;7104;-61
2022/12/06 10:26:10;;;;;;;;;;;;;;;;;;1918409;28;7221;-62
2022/12/06 10:27:10;;;;;;;;;;;;;;;;;;1918627;28;7050;-63
2022/12/06 10:28:12;;;;;;;;;;;;;;;;;;1918844;28;7017;-62
2022/12/06 10:29:18;;;;;;;;;;;;;;;;;;1918656;28;7457;-62
2022/12/06 10:30:24;;;;;;;;;;;;;;;;;;1919010;28;7113;-62
2022/12/06 10:31:23;;;;;;;;;;;;;;;;;;1918268;28;7053;-61
2022/12/06 10:32:26;;;;;;;;;;;;;;;;;;1918373;28;7013;-63
2022/12/06 10:33:39;;;;;;;;;;;;;;;;;;1918028;28;7046;-61
2022/12/06 10:34:52;;;;;;;;;;;;;;;;;;1918244;28;7130;-62
2022/12/06 10:35:54;;;;;;;;;;;;;;;;;;1917889;28;7017;-63
2022/12/06 10:37:12;;;;;;;;;;;;;;;;;;1918264;28;7041;-62
2022/12/06 10:38:22;;;;;;;;;;;;;;;;;;1904987;28;8022;-61
2022/12/06 10:39:28;;;;;;;;;;;;;;;;;;1909203;28;7009;-62
2022/12/06 10:40:30;;;;;;;;;;;;;;;;;;1919427;28;7127;-62
2022/12/06 10:41:32;;;;;;;;;;;;;;;;;;1916899;28;7092;-62
2022/12/06 10:42:36;;;;;;;;;;;;;;;;;;1917684;28;7262;-62
2022/12/06 10:43:36;;;;;;;;;;;;;;;;;;1918169;28;8101;-62
2022/12/06 10:44:41;;;;;;;;;;;;;;;;;;1917998;28;8138;-62
2022/12/06 10:47:23;;;;;;;;;;;;;;;;;;1911709;28;8011;-62
2022/12/06 10:48:28;;;;;;;;;;;;;;;;;;1918221;28;7096;-62
2022/12/06 10:49:32;;;;;;;;;;;;;;;;;;1918465;28;7209;-62
2022/12/06 10:50:34;;;;;;;;;;;;;;;;;;1918392;28;7130;-62
2022/12/06 10:51:45;;;;;;;;;;;;;;;;;;1918365;28;7149;-61
2022/12/06 10:52:46;;;;;;;;;;;;;;;;;;1911102;28;7005;-61
2022/12/06 10:53:50;;;;;;;;;;;;;;;;;;1905519;28;8050;-61
2022/12/06 10:54:50;;;;;;;;;;;;;;;;;;1905896;28;7013;-62
2022/12/06 10:55:56;;;;;;;;;;;;;;;;;;1904623;28;7030;-61
2022/12/06 10:56:58;;;;;;;;;;;;;;;;;;1904705;28;7014;-61
2022/12/06 10:58:01;;;;;;;;;;;;;;;;;;1905646;28;7148;-62
2022/12/06 10:59:06;;;;;;;;;;;;;;;;;;1905510;28;7042;-63
2022/12/06 11:00:05;;;;;;;;;;;;;;;;;;1896489;28;7088;-61
2022/12/06 11:01:27;;;;;;;;;;;;;;;;;;1896121;28;8013;-62
2022/12/06 11:02:24;;;;;;;;;;;;;;;;;;1905403;28;7124;-61
2022/12/06 11:03:39;;;;;;;;;;;;;;;;;;1905515;28;8043;-62
2022/12/06 11:04:38;;;;;;;;;;;;;;;;;;1905679;28;7010;-61
2022/12/06 11:05:35;;;;;;;;;;;;;;;;;;1905608;28;7097;-62
2022/12/06 11:06:46;;;;;;;;;;;;;;;;;;1905283;28;7009;-62
2022/12/06 11:07:55;;;;;;;;;;;;;;;;;;1905087;28;7100;-62
2022/12/06 11:08:57;;;;;;;;;;;;;;;;;;1905540;28;7400;-61
2022/12/06 11:09:55;;;;;;;;;;;;;;;;;;1905192;28;7139;-62
2022/12/06 11:10:55;;;;;;;;;;;;;;;;;;1905138;28;7037;-62
2022/12/06 11:11:52;;;;;;;;;;;;;;;;;;1897755;28;7181;-61
2022/12/06 11:13:00;;;;;;;;;;;;;;;;;;1897968;28;7013;-63
2022/12/06 11:14:10;;;;;;;;;;;;;;;;;;1906549;28;7266;-62
2022/12/06 11:15:31;;;;;;;;;;;;;;;;;;1905844;28;7014;-62
2022/12/06 11:16:36;;;;;;;;;;;;;;;;;;1905405;28;7009;-63
2022/12/06 11:17:39;;;;;;;;;;;;;;;;;;1905515;28;7112;-62
2022/12/06 11:18:38;;;;;;;;;;;;;;;;;;1905561;28;7172;-62
2022/12/06 11:19:44;;;;;;;;;;;;;;;;;;1905981;28;7097;-61
2022/12/06 11:20:57;;;;;;;;;;;;;;;;;;1905998;28;7005;-61
2022/12/06 11:22:05;;;;;;;;;;;;;;;;;;1897877;28;7041;-62
2022/12/06 11:23:27;;;;;;;;;;;;;;;;;;1897587;28;8742;-67
2022/12/06 11:24:27;;;;;;;;;;;;;;;;;;1905233;28;8237;-62
2022/12/06 11:25:28;;;;;;;;;;;;;;;;;;1905683;28;7093;-63
2022/12/06 11:26:41;;;;;;;;;;;;;;;;;;1897848;28;7046;-62
2022/12/06 11:27:43;;;;;;;;;;;;;;;;;;1898483;28;7038;-62
2022/12/06 11:28:45;;;;;;;;;;;;;;;;;;1905889;28;7045;-61
2022/12/06 11:29:46;;;;;;;;;;;;;;;;;;1905613;28;7005;-62
2022/12/06 11:30:44;;;;;;;;;;;;;;;;;;1905305;28;7014;-61
2022/12/06 11:32:00;;;;;;;;;;;;;;;;;;1904923;28;7013;-61
2022/12/06 11:33:00;;;;;;;;;;;;;;;;;;1904615;28;7120;-62
2022/12/06 11:33:58;;;;;;;;;;;;;;;;;;1904553;28;7038;-62
2022/12/06 11:34:57;;;;;;;;;;;;;;;;;;1905171;28;7177;-62
2022/12/06 11:35:56;;;;;;;;;;;;;;;;;;1905044;28;7006;-61
2022/12/06 11:36:54;;;;;;;;;;;;;;;;;;1905515;28;7030;-62
2022/12/06 11:38:04;;;;;;;;;;;;;;;;;;1904654;28;7110;-62
2022/12/06 11:39:02;;;;;;;;;;;;;;;;;;1905747;28;7247;-61
2022/12/06 11:40:05;;;;;;;;;;;;;;;;;;1905250;28;7323;-62
2022/12/06 11:41:07;;;;;;;;;;;;;;;;;;1905388;28;8089;-62
2022/12/06 11:42:07;;;;;;;;;;;;;;;;;;1904214;28;7146;-62
2022/12/06 11:43:08;;;;;;;;;;;;;;;;;;1905701;28;7110;-62
2022/12/06 11:44:06;;;;;;;;;;;;;;;;;;1905206;28;7006;-62
2022/12/06 11:45:10;;;;;;;;;;;;;;;;;;1905607;28;7566;-62
2022/12/06 11:46:10;;;;;;;;;;;;;;;;;;1904403;28;7428;-62
2022/12/06 11:47:14;;;;;;;;;;;;;;;;;;1905309;28;7319;-61
2022/12/06 11:48:16;;;;;;;;;;;;;;;;;;1905065;28;7129;-62
2022/12/06 11:49:18;;;;;;;;;;;;;;;;;;1904252;28;7001;-62
2022/12/06 11:50:17;;;;;;;;;;;;;;;;;;1902561;28;7128;-61
2022/12/06 11:51:17;;;;;;;;;;;;;;;;;;1905571;28;8030;-61
2022/12/06 11:52:36;;;;;;;;;;;;;;;;;;1909774;28;7303;-61
2022/12/06 11:53:33;;;;;;;;;;;;;;;;;;1899592;28;7088;-62
2022/12/06 11:54:36;;;;;;;;;;;;;;;;;;1904573;28;7005;-62
2022/12/06 11:55:39;;;;;;;;;;;;;;;;;;1909382;28;7096;-61
2022/12/06 11:56:37;;;;;;;;;;;;;;;;;;1905969;28;7002;-62
2022/12/06 11:57:41;;;;;;;;;;;;;;;;;;1905363;28;7037;-62
2022/12/06 11:58:42;;;;;;;;;;;;;;;;;;1905434;28;7367;-62
2022/12/06 12:00:00;;;;;;;;;;;;;;;;;;1905027;28;8178;-63
2022/12/06 12:01:09;;;;;;;;;;;;;;;;;;1908110;28;7022;-62
2022/12/06 12:02:26;;;;;;;;;;;;;;;;;;1905510;28;7006;-61
2022/12/06 12:03:27;;;;;;;;;;;;;;;;;;1897183;28;7335;-63
2022/12/06 12:04:33;;;;;;;;;;;;;;;;;;1897475;28;7355;-63
2022/12/06 12:05:37;;;;;;;;;;;;;;;;;;1904432;28;7210;-62
2022/12/06 12:06:35;;;;;;;;;;;;;;;;;;1905129;28;7034;-61
2022/12/06 12:07:34;;;;;;;;;;;;;;;;;;1905218;28;7006;-62
2022/12/06 12:08:31;;;;;;;;;;;;;;;;;;1904895;28;7125;-62
2022/12/06 12:09:32;;;;;;;;;;;;;;;;;;1905495;28;7092;-62
2022/12/06 12:10:30;;;;;;;;;;;;;;;;;;1900772;28;7278;-62
2022/12/06 12:11:36;;;;;;;;;;;;;;;;;;1899357;28;7094;-62
2022/12/06 12:14:01;;;;;;;;;;;;;;;;;;1905274;28;7038;-61
2022/12/06 12:14:58;;;;;;;;;;;;;;;;;;1908739;28;7034;-62
2022/12/06 12:15:59;;;;;;;;;;;;;;;;;;1912565;28;7408;-62
2022/12/06 12:17:01;;;;;;;;;;;;;;;;;;1912939;28;7140;-62
2022/12/06 12:18:00;;;;;;;;;;;;;;;;;;1905965;28;7009;-61
2022/12/06 12:19:01;;;;;;;;;;;;;;;;;;1906608;28;7035;-62
2022/12/06 12:20:01;;;;;;;;;;;;;;;;;;1905584;28;7144;-62
2022/12/06 12:21:00;;;;;;;;;;;;;;;;;;1908971;28;7009;-62
2022/12/06 12:21:59;;;;;;;;;;;;;;;;;;1908082;28;7072;-62
2022/12/06 12:23:02;;;;;;;;;;;;;;;;;;1904900;28;7121;-60
2022/12/06 12:24:00;;;;;;;;;;;;;;;;;;1904893;28;7006;-62
2022/12/06 12:25:02;;;;;;;;;;;;;;;;;;1905884;28;7006;-62
2022/12/06 12:26:18;;;;;;;;;;;;;;;;;;1905212;28;7009;-62
2022/12/06 12:27:34;;;;;;;;;;;;;;;;;;1905798;28;7021;-62
2022/12/06 12:28:32;;;;;;;;;;;;;;;;;;1904848;28;8026;-61
2022/12/06 12:29:30;;;;;;;;;;;;;;;;;;1907552;28;7006;-62
2022/12/06 12:30:27;;;;;;;;;;;;;;;;;;1910530;28;8531;-62
2022/12/06 12:31:25;;;;;;;;;;;;;;;;;;1912735;28;7005;-63
2022/12/06 12:32:23;;;;;;;;;;;;;;;;;;1910708;28;7037;-62
2022/12/06 12:33:22;;;;;;;;;;;;;;;;;;1912438;28;7037;-62
2022/12/06 12:34:25;;;;;;;;;;;;;;;;;;1905241;28;8054;-61
2022/12/06 12:35:25;;;;;;;;;;;;;;;;;;1911159;28;7154;-62
2022/12/06 12:36:27;;;;;;;;;;;;;;;;;;1912534;28;7006;-62
2022/12/06 12:37:25;;;;;;;;;;;;;;;;;;1906501;28;7101;-62
2022/12/06 12:38:26;;;;;;;;;;;;;;;;;;1903251;28;7017;-62
2022/12/06 12:39:28;;;;;;;;;;;;;;;;;;1910286;28;7300;-62
2022/12/06 12:40:28;;;;;;;;;;;;;;;;;;1906074;28;7148;-61
2022/12/06 12:41:37;;;;;;;;;;;;;;;;;;1910778;28;7006;-61
2022/12/06 12:42:38;;;;;;;;;;;;;;;;;;1905278;28;7042;-62
2022/12/06 12:43:36;;;;;;;;;;;;;;;;;;1909853;28;7014;-62
2022/12/06 12:44:37;;;;;;;;;;;;;;;;;;1908526;28;7038;-61
2022/12/06 12:45:36;;;;;;;;;;;;;;;;;;1912521;28;7092;-62
2022/12/06 12:46:35;;;;;;;;;;;;;;;;;;1909228;28;7088;-61
2022/12/06 12:47:33;;;;;;;;;;;;;;;;;;1907443;28;7410;-62
2022/12/06 12:48:31;;;;;;;;;;;;;;;;;;1912458;28;7172;-62
2022/12/06 12:49:33;;;;;;;;;;;;;;;;;;1890682;28;7209;-61
2022/12/06 12:50:31;;;;;;;;;;;;;;;;;;1892728;28;8027;-62
2022/12/06 12:51:36;;;;;;;;;;;;;;;;;;1903246;28;7038;-61
2022/12/06 12:52:39;;;;;;;;;;;;;;;;;;1911016;28;7030;-61
2022/12/06 12:53:39;;;;;;;;;;;;;;;;;;1912441;28;7042;-62
2022/12/06 12:54:37;;;;;;;;;;;;;;;;;;1912176;28;7038;-62
2022/12/06 12:55:38;;;;;;;;;;;;;;;;;;1912528;28;7124;-61
2022/12/06 12:56:36;;;;;;;;;;;;;;;;;;1911818;28;7001;-62
2022/12/06 12:57:33;;;;;;;;;;;;;;;;;;1911978;28;7088;-62
2022/12/06 12:58:31;;;;;;;;;;;;;;;;;;1912512;28;7134;-62
2022/12/06 12:59:36;;;;;;;;;;;;;;;;;;1912135;28;7404;-61
2022/12/06 13:00:36;;;;;;;;;;;;;;;;;;1911682;28;7005;-61
2022/12/06 13:01:40;;;;;;;;;;;;;;;;;;1911355;28;7005;-62
2022/12/06 13:02:41;;;;;;;;;;;;;;;;;;1912350;28;8189;-62
2022/12/06 13:03:40;;;;;;;;;;;;;;;;;;1912062;28;7092;-61
2022/12/06 13:04:49;;;;;;;;;;;;;;;;;;1912172;28;7014;-61
2022/12/06 13:06:20;;;;;;;;;;;;;;;;;;1912179;28;8011;-62
2022/12/06 13:07:24;;;;;;;;;;;;;;;;;;1912475;28;7038;-61
2022/12/06 13:08:25;;;;;;;;;;;;;;;;;;1911853;28;7105;-62
2022/12/06 13:09:27;;;;;;;;;;;;;;;;;;1912005;28;7120;-61
2022/12/06 13:10:35;;;;;;;;;;;;;;;;;;1911996;28;7013;-62
2022/12/06 13:11:41;;;;;;;;;;;;;;;;;;1912315;28;7013;-62
2022/12/06 13:12:54;;;;;;;;;;;;;;;;;;1911075;28;7113;-61
2022/12/06 13:13:53;;;;;;;;;;;;;;;;;;1911834;28;7092;-62
2022/12/06 13:14:54;;;;;;;;;;;;;;;;;;1910793;28;7096;-62
2022/12/06 13:15:54;;;;;;;;;;;;;;;;;;1911621;28;7025;-61
2022/12/06 13:16:54;;;;;;;;;;;;;;;;;;1912070;28;7009;-61
2022/12/06 13:17:57;;;;;;;;;;;;;;;;;;1912044;28;7005;-62
2022/12/06 13:18:57;;;;;;;;;;;;;;;;;;1911800;28;7089;-62
2022/12/06 13:19:54;;;;;;;;;;;;;;;;;;1910283;28;7041;-62
2022/12/06 13:20:55;;;;;;;;;;;;;;;;;;1912028;28;7311;-62
2022/12/06 13:21:53;;;;;;;;;;;;;;;;;;1911786;28;7010;-61
2022/12/06 13:22:53;;;;;;;;;;;;;;;;;;1911710;28;7343;-62
2022/12/06 13:24:13;;;;;;;;;;;;;;;;;;1912072;28;7355;-62
2022/12/06 13:25:11;;;;;;;;;;;;;;;;;;1902956;28;7247;-62
2022/12/06 13:26:24;;;;;;;;;;;;;;;;;;1911516;28;7445;-63
2022/12/06 13:27:24;;;;;;;;;;;;;;;;;;1910920;28;8174;-61
2022/12/06 13:28:26;;;;;;;;;;;;;;;;;;1911689;28;8283;-62
2022/12/06 13:29:41;;;;;;;;;;;;;;;;;;1911772;28;7042;-62
2022/12/06 13:30:40;;;;;;;;;;;;;;;;;;1911390;28;7021;-62
2022/12/06 13:31:39;;;;;;;;;;;;;;;;;;1912564;28;7109;-62
2022/12/06 13:32:51;;;;;;;;;;;;;;;;;;1910187;28;7009;-62